Lincoln, NE
5/6/2007


DISTANCE 26.2 MILES
FINISHERS 1075 (712 men, 363 women)
AVERAGE TIME 4:09:46

FIND RESULTS


Bib Name Sex Age City State Overall SexPl DivPl Time
2023 James Bresette M 46 Clinton AR 11 / 1075 10 / 712 1 / 102 2:46:02
2087 Bill Kaemmer M 48 Hillsboro OR 50 / 1075 48 / 712 2 / 102 3:01:28
2162 Trent Sinnett M 45 Homewood IL 51 / 1075 49 / 712 3 / 102 3:01:37
2198 Walter Bird M 49 Marcellus NY 52 / 1075 50 / 712 4 / 102 3:01:39
2047 Rick Downs M 45 Temple TX 56 / 1075 54 / 712 5 / 102 3:02:18
53 Dewey Barsaloux M 49 Clayton MO 68 / 1075 65 / 712 6 / 102 3:06:17
2082 Russell Hoyer M 46 Voorheesville NY 70 / 1075 67 / 712 7 / 102 3:09:34
2117 David Meyer M 46 Colorado Springs CO 71 / 1075 68 / 712 8 / 102 3:10:01
569 Keith Long M 49 Sedan KS 89 / 1075 84 / 712 9 / 102 3:13:12
460 Craig Johnson M 47 Bridgeport NE 93 / 1075 88 / 712 10 / 102 3:13:41
2075 Gregory Hennes M 47 Derby KS 109 / 1075 104 / 712 11 / 102 3:17:56
1020 Daniel Wilson M 49 Thornton CO 112 / 1075 107 / 712 12 / 102 3:18:14
781 Mark Riley M 49 Norfolk NE 116 / 1075 110 / 712 13 / 102 3:18:49
2091 Edgar Kimsey M 46 Aiea HI 118 / 1075 112 / 712 14 / 102 3:18:57
170 Bruce Coffman M 46 Haysville KS 143 / 1075 134 / 712 15 / 102 3:23:47
2037 Michael Compton M 45 Kailua HI 152 / 1075 141 / 712 16 / 102 3:26:24
254 Tobin Ehlers M 45 Omaha NE 170 / 1075 156 / 712 17 / 102 3:29:15
722 Norm Pfeiffer M 45 Lincoln NE 172 / 1075 157 / 712 18 / 102 3:29:42
419 Don Honeycutt M 47 Omaha NE 189 / 1075 171 / 712 19 / 102 3:31:36
253 Jeffrey Eggers M 49 Northfield MN 205 / 1075 184 / 712 20 / 102 3:33:33
838 Mark Schultz M 46 Fremont NE 212 / 1075 188 / 712 21 / 102 3:34:36
663 Greg Murphy M 47 Olathe KS 220 / 1075 195 / 712 22 / 102 3:34:56
415 Scott Holmes M 47 Lincoln NE 221 / 1075 196 / 712 23 / 102 3:35:23
156 Ray Chmiel M 49 McCook NE 223 / 1075 198 / 712 24 / 102 3:35:34
445 Ed Jacob M 49 Van Wert OH 231 / 1075 203 / 712 25 / 102 3:36:18
255 S. Ehrenberg M 46 Funk NE 236 / 1075 206 / 712 26 / 102 3:36:52
2187 Gregg Whisler M 46 Midlothian VA 242 / 1075 211 / 712 27 / 102 3:38:36
2017 Guy Boden M 45 Lincoln NE 245 / 1075 212 / 712 28 / 102 3:39:04
361 Scott Hanson M 46 Lake Quivira KS 252 / 1075 218 / 712 29 / 102 3:39:43
2005 David Baker M 49 Pueblo CO 255 / 1075 220 / 712 30 / 102 3:39:54
23 Jorge Alvarez M 46 Council Bluffs IA 256 / 1075 221 / 712 31 / 102 3:40:06
1234 Doug Adams M 45 Urbandale IA 257 / 1075 222 / 712 32 / 102 3:40:21
2145 Anthony Prest M 45 Appleton ME 263 / 1075 225 / 712 33 / 102 3:40:48
137 Michael Calvillo M 46 Dakota Dunes SD 271 / 1075 230 / 712 34 / 102 3:41:20
416 Michael Holroyd M 45 Lincoln NE 298 / 1075 252 / 712 35 / 102 3:43:56
1089 Hiroyuki Nishide M 45 Rye NY 301 / 1075 254 / 712 36 / 102 3:44:43
2211 Mark Anderson M 49 Lewisville TX 305 / 1075 258 / 712 37 / 102 3:44:56
360 George Hansen M 45 Lincoln NE 307 / 1075 260 / 712 38 / 102 3:45:10
218 Craig Diehl M 47 Lincoln NE 309 / 1075 262 / 712 39 / 102 3:45:14
160 Dave Christiansen M 47 Lincoln NE 313 / 1075 266 / 712 40 / 102 3:46:24
742 Gregory Prochazka M 48 Lincoln NE 324 / 1075 275 / 712 41 / 102 3:47:33
1113 Craig Wilson M 45 Omaha NE 325 / 1075 276 / 712 42 / 102 3:47:36
70 Bill Broderick M 45 Friendswood TX 342 / 1075 286 / 712 43 / 102 3:49:43
2052 Jay Ellingsen M 46 Glenburn ME 357 / 1075 292 / 712 44 / 102 3:51:23
1114 Daniel Wurm M 49 Lincoln NE 371 / 1075 304 / 712 45 / 102 3:53:05
884 Bj Spring M 47 Lincoln NE 380 / 1075 312 / 712 46 / 102 3:54:15
850 David Selby M 46 Omaha NE 385 / 1075 316 / 712 47 / 102 3:54:34
42 Edward Balderson M 45 Cortland NE 388 / 1075 318 / 712 48 / 102 3:55:00
1486 Dan Murray M 48 Gladstone MO 396 / 1075 325 / 712 49 / 102 3:55:39
816 Joel Sartwell M 47 Columbia MO 400 / 1075 327 / 712 50 / 102 3:55:56
1-50    51-100→
Per Page: [50] [100] [500]